Time;durP1;ratioP1;P1;durP2;ratioP2;P2;SDS_P1;SDS_P2;PMS_P1;PMS_P2;Temp;Humidity;BMP_temperature;BMP_pressure;BME280_temperature;BME280_humidity;BME280_pressure;Samples;Min_cycle;Max_cycle;Signal;HPM_P1;HPM_P2
2023/08/16 00:02:26;;;;;;;;;;;18.80;99.90;;;;;;5091190;28;19923;-71
2023/08/16 00:04:52;;;;;;;;;;;18.70;99.90;;;;;;5091258;28;19924;-72
2023/08/16 00:07:19;;;;;;;;;;;18.50;99.90;;;;;;5090999;28;20015;-70
2023/08/16 00:09:46;;;;;;;;;;;18.40;99.90;;;;;;5091887;28;19908;-69
2023/08/16 00:12:12;;;;;;;;;;;18.50;99.90;;;;;;5091328;28;19916;-69
2023/08/16 00:14:39;;;;;;;;;;;18.80;99.90;;;;;;5090718;28;20018;-71
2023/08/16 00:17:06;;;;;;;;;;;19.10;99.90;;;;;;5091532;28;19928;-70
2023/08/16 00:19:32;;;;;;;;;;;19.50;99.90;;;;;;5091573;28;20031;-69
2023/08/16 00:21:59;;;;;;;;;;;19.80;99.90;;;;;;5090900;28;19923;-70
2023/08/16 00:24:26;;;;;;;;;;;20.50;99.90;;;;;;5091314;28;19912;-69
2023/08/16 00:26:52;;;;;;;;;;;20.50;99.90;;;;;;5091362;28;19912;-72
2023/08/16 00:29:19;;;;;;;;;;;20.80;99.90;;;;;;5090914;28;20369;-71
2023/08/16 00:31:46;;;;;;;;;;;21.20;99.90;;;;;;5091485;28;20258;-71
2023/08/16 00:34:12;;;;;;;;;;;21.60;99.90;;;;;;5091419;28;20385;-72
2023/08/16 00:36:39;;;;;;;;;;;21.30;99.90;;;;;;5091486;28;19931;-72
2023/08/16 00:39:06;;;;;;;;;;;21.40;99.90;;;;;;5091785;28;20053;-72
2023/08/16 00:41:33;;;;;;;;;;;21.30;99.90;;;;;;5091519;28;19968;-72
2023/08/16 00:44:00;;;;;;;;;;;21.50;99.90;;;;;;5091462;28;20006;-71
2023/08/16 00:46:27;;;;;;;;;;;21.70;99.90;;;;;;5091896;28;19908;-72
2023/08/16 00:48:54;;;;;;;;;;;21.70;99.90;;;;;;5091845;28;19908;-72
2023/08/16 00:51:22;;;;;;;;;;;22.50;99.90;;;;;;5097808;28;20311;-70
2023/08/16 00:53:49;;;;;;;;;;;22.30;99.90;;;;;;5111954;28;20279;-71
2023/08/16 00:56:16;;;;;;;;;;;21.90;99.90;;;;;;5112222;28;19907;-71
2023/08/16 00:58:43;;;;;;;;;;;21.80;99.90;;;;;;5111762;28;19919;-70
2023/08/16 01:01:10;;;;;;;;;;;21.90;99.90;;;;;;5102655;28;20296;-71
2023/08/16 01:03:37;;;;;;;;;;;22.50;99.90;;;;;;5091861;28;19982;-70
2023/08/16 01:06:04;;;;;;;;;;;23.30;99.90;;;;;;5091192;28;19931;-70
2023/08/16 01:08:32;;;;;;;;;;;23.50;99.90;;;;;;5091620;28;20329;-72
2023/08/16 01:11:02;;;;;;;;;;;23.50;99.90;;;;;;5111389;28;19908;-69
2023/08/16 01:13:34;;;;;;;;;;;22.80;99.90;;;;;;5090969;28;19912;-71
2023/08/16 01:16:07;;;;;;;;;;;22.20;99.90;;;;;;5092032;28;20308;-71
2023/08/16 01:18:36;;;;;;;;;;;22.50;99.90;;;;;;5091394;28;20323;-72
2023/08/16 01:21:03;;;;;;;;;;;22.70;99.90;;;;;;5090661;28;19924;-73
2023/08/16 01:23:30;;;;;;;;;;;21.80;99.90;;;;;;5071289;28;20602;-69
2023/08/16 01:25:59;;;;;;;;;;;21.40;99.90;;;;;;5071251;28;19918;-71
2023/08/16 01:28:26;;;;;;;;;;;20.30;99.90;;;;;;5070823;28;19915;-71
2023/08/16 01:30:54;;;;;;;;;;;20.80;99.90;;;;;;5073904;28;20038;-71
2023/08/16 01:33:20;;;;;;;;;;;21.40;99.90;;;;;;5090622;28;19920;-70
2023/08/16 01:35:47;;;;;;;;;;;21.00;99.90;;;;;;5090575;28;19990;-70
2023/08/16 01:38:14;;;;;;;;;;;21.00;99.90;;;;;;5091393;28;19953;-71
2023/08/16 01:41:01;;;;;;;;;;;21.30;99.90;;;;;;5094197;28;20358;-71
2023/08/16 01:43:28;;;;;;;;;;;21.50;99.90;;;;;;5066061;28;19964;-69
2023/08/16 01:45:55;;;;;;;;;;;21.30;99.90;;;;;;5074662;28;19919;-71
2023/08/16 01:48:23;;;;;;;;;;;20.80;99.90;;;;;;5086382;28;19942;-70
2023/08/16 01:50:50;;;;;;;;;;;19.70;99.90;;;;;;5094287;28;19912;-70
2023/08/16 01:53:18;;;;;;;;;;;19.30;99.90;;;;;;5094419;28;19923;-70
2023/08/16 01:55:45;;;;;;;;;;;18.80;99.90;;;;;;5093733;28;19915;-71
2023/08/16 01:58:11;;;;;;;;;;;18.30;99.90;;;;;;5093954;28;19912;-70
2023/08/16 02:00:38;;;;;;;;;;;18.00;99.90;;;;;;5094411;28;19920;-71
2023/08/16 02:03:05;;;;;;;;;;;18.50;99.90;;;;;;5096060;28;19930;-70
2023/08/16 02:05:32;;;;;;;;;;;18.00;99.90;;;;;;5096212;28;19990;-71
2023/08/16 02:07:58;;;;;;;;;;;18.00;99.90;;;;;;5095578;28;19951;-70
2023/08/16 02:10:25;;;;;;;;;;;17.90;99.90;;;;;;5095978;28;20010;-70
2023/08/16 02:12:52;;;;;;;;;;;17.80;99.90;;;;;;5095549;28;19961;-71
2023/08/16 02:15:18;;;;;;;;;;;18.30;99.90;;;;;;5096142;28;19908;-71
2023/08/16 02:17:45;;;;;;;;;;;19.80;99.90;;;;;;5096199;28;20246;-70
2023/08/16 02:20:12;;;;;;;;;;;21.10;99.90;;;;;;5095191;28;19928;-70
2023/08/16 02:22:39;;;;;;;;;;;22.60;99.90;;;;;;5096117;28;19914;-71
2023/08/16 02:25:06;;;;;;;;;;;23.40;99.90;;;;;;5095457;28;19912;-70
2023/08/16 02:27:33;;;;;;;;;;;23.60;99.90;;;;;;5095978;28;19912;-69
2023/08/16 02:30:00;;;;;;;;;;;23.40;99.90;;;;;;5095427;28;19966;-69
2023/08/16 02:32:27;;;;;;;;;;;22.20;99.90;;;;;;5074430;28;20018;-69
2023/08/16 02:34:53;;;;;;;;;;;22.10;99.90;;;;;;5093965;28;19908;-71
2023/08/16 02:37:20;;;;;;;;;;;21.70;99.90;;;;;;5093841;28;20265;-69
2023/08/16 02:39:47;;;;;;;;;;;20.30;99.90;;;;;;5093534;28;19956;-69
2023/08/16 02:42:14;;;;;;;;;;;19.70;99.90;;;;;;5093406;28;20324;-69
2023/08/16 02:44:41;;;;;;;;;;;19.70;99.90;;;;;;5093412;28;19946;-69
2023/08/16 02:47:08;;;;;;;;;;;20.40;99.90;;;;;;5093388;28;19919;-70
2023/08/16 02:49:34;;;;;;;;;;;21.60;99.90;;;;;;5092951;28;19912;-70
2023/08/16 02:52:01;;;;;;;;;;;21.60;99.90;;;;;;5100467;28;19915;-70
2023/08/16 02:54:28;;;;;;;;;;;22.10;99.90;;;;;;5106511;28;19993;-70
2023/08/16 02:56:55;;;;;;;;;;;22.40;99.90;;;;;;5093448;28;20361;-69
2023/08/16 02:59:21;;;;;;;;;;;21.50;99.90;;;;;;5096348;28;20312;-70
2023/08/16 03:01:48;;;;;;;;;;;21.00;99.90;;;;;;5096617;28;19978;-70
2023/08/16 03:04:15;;;;;;;;;;;20.60;99.90;;;;;;5093179;28;19908;-70
2023/08/16 03:06:42;;;;;;;;;;;20.50;99.90;;;;;;5078563;28;19908;-69
2023/08/16 03:09:09;;;;;;;;;;;21.40;99.90;;;;;;5093361;28;19909;-70
2023/08/16 03:11:35;;;;;;;;;;;21.20;99.90;;;;;;5093297;28;19908;-70
2023/08/16 03:14:02;;;;;;;;;;;20.20;99.90;;;;;;5095684;28;20221;-69
2023/08/16 03:16:29;;;;;;;;;;;20.70;99.90;;;;;;5112734;28;19962;-69
2023/08/16 03:18:56;;;;;;;;;;;21.20;99.90;;;;;;5092621;28;19924;-71
2023/08/16 03:21:23;;;;;;;;;;;21.00;99.90;;;;;;5093114;28;19920;-70
2023/08/16 03:23:50;;;;;;;;;;;20.80;99.90;;;;;;5093136;28;20384;-69
2023/08/16 03:26:16;;;;;;;;;;;21.00;99.90;;;;;;5092092;28;19923;-68
2023/08/16 03:28:43;;;;;;;;;;;21.10;99.90;;;;;;5092889;28;19920;-70
2023/08/16 03:31:09;;;;;;;;;;;20.40;99.90;;;;;;5093087;28;19934;-71
2023/08/16 03:33:36;;;;;;;;;;;19.90;99.90;;;;;;5092484;28;19959;-70
2023/08/16 03:36:03;;;;;;;;;;;19.70;99.90;;;;;;5092502;28;20034;-70
2023/08/16 03:38:30;;;;;;;;;;;19.70;99.90;;;;;;5092749;28;19916;-71
2023/08/16 03:40:56;;;;;;;;;;;19.70;99.90;;;;;;5092383;28;19916;-69
2023/08/16 03:43:23;;;;;;;;;;;19.40;99.90;;;;;;5093155;28;19916;-68
2023/08/16 03:45:50;;;;;;;;;;;19.30;99.90;;;;;;5098023;28;19912;-69
2023/08/16 03:48:16;;;;;;;;;;;19.10;99.90;;;;;;5092160;28;19908;-70
2023/08/16 03:50:43;;;;;;;;;;;19.10;99.90;;;;;;5092702;28;19916;-69
2023/08/16 03:53:11;;;;;;;;;;;18.90;99.90;;;;;;5092471;28;19969;-70
2023/08/16 03:55:38;;;;;;;;;;;18.90;99.90;;;;;;5092176;28;19951;-69
2023/08/16 03:58:04;;;;;;;;;;;19.30;99.90;;;;;;5092725;28;19912;-69
2023/08/16 04:00:31;;;;;;;;;;;19.40;99.90;;;;;;5092253;28;19920;-70
2023/08/16 04:02:58;;;;;;;;;;;19.20;99.90;;;;;;5091312;28;19908;-70
2023/08/16 04:05:24;;;;;;;;;;;19.20;99.90;;;;;;5092452;28;19915;-70
2023/08/16 04:07:51;;;;;;;;;;;19.10;99.90;;;;;;5092550;28;19998;-69
2023/08/16 04:10:18;;;;;;;;;;;19.00;99.90;;;;;;5091920;28;19909;-70
2023/08/16 04:12:44;;;;;;;;;;;19.40;99.90;;;;;;5091965;28;19909;-69
2023/08/16 04:15:11;;;;;;;;;;;19.60;99.90;;;;;;5092027;28;19912;-70
2023/08/16 04:17:38;;;;;;;;;;;19.60;99.90;;;;;;5091843;28;19908;-70
2023/08/16 04:20:07;;;;;;;;;;;19.60;99.90;;;;;;5091970;28;19920;-70
2023/08/16 04:22:38;;;;;;;;;;;19.60;99.90;;;;;;5091425;28;20216;-70
2023/08/16 04:25:06;;;;;;;;;;;19.70;99.90;;;;;;5091846;28;19938;-71
2023/08/16 04:27:33;;;;;;;;;;;19.60;99.90;;;;;;5092125;28;19955;-71
2023/08/16 04:29:59;;;;;;;;;;;19.60;99.90;;;;;;5092183;28;19912;-71
2023/08/16 04:32:26;;;;;;;;;;;19.60;99.90;;;;;;5091488;28;19912;-71
2023/08/16 04:34:53;;;;;;;;;;;20.20;99.90;;;;;;5091901;28;19912;-71
2023/08/16 04:37:19;;;;;;;;;;;20.80;99.90;;;;;;5090885;28;20342;-70
2023/08/16 04:39:48;;;;;;;;;;;20.80;99.90;;;;;;5108015;28;20331;-70
2023/08/16 04:42:15;;;;;;;;;;;20.60;99.90;;;;;;5112101;28;19920;-70
2023/08/16 04:44:42;;;;;;;;;;;20.30;99.90;;;;;;5112213;28;19918;-70
2023/08/16 04:47:09;;;;;;;;;;;19.80;99.90;;;;;;5111787;28;20353;-70
2023/08/16 04:49:35;;;;;;;;;;;19.50;99.90;;;;;;5112213;28;19955;-70
2023/08/16 04:52:02;;;;;;;;;;;19.20;99.90;;;;;;5112019;28;19915;-71
2023/08/16 04:54:29;;;;;;;;;;;18.90;99.90;;;;;;5111656;28;19955;-70
2023/08/16 04:56:56;;;;;;;;;;;18.60;99.90;;;;;;5111965;28;20364;-70
2023/08/16 04:59:22;;;;;;;;;;;18.50;99.90;;;;;;5112136;28;20014;-70
2023/08/16 05:01:49;;;;;;;;;;;18.30;99.90;;;;;;5111556;28;19911;-70
2023/08/16 05:04:16;;;;;;;;;;;18.30;99.90;;;;;;5111817;28;20380;-69
2023/08/16 05:06:43;;;;;;;;;;;18.30;99.90;;;;;;5102675;28;20361;-70
2023/08/16 05:09:10;;;;;;;;;;;18.30;99.90;;;;;;5071091;28;20007;-70
2023/08/16 05:11:36;;;;;;;;;;;18.40;99.90;;;;;;5071581;28;20011;-70
2023/08/16 05:14:03;;;;;;;;;;;18.90;99.90;;;;;;5073425;28;19974;-70
2023/08/16 05:16:30;;;;;;;;;;;19.20;99.90;;;;;;5074889;28;19908;-70
2023/08/16 05:18:58;;;;;;;;;;;19.10;99.90;;;;;;5075007;28;19923;-70
2023/08/16 05:21:25;;;;;;;;;;;19.20;99.90;;;;;;5090503;28;19992;-70
2023/08/16 05:23:52;;;;;;;;;;;19.40;99.90;;;;;;5094765;28;19908;-72
2023/08/16 05:26:20;;;;;;;;;;;19.60;99.90;;;;;;5095388;28;19904;-70
2023/08/16 05:28:46;;;;;;;;;;;19.80;99.90;;;;;;5095330;28;19915;-69
2023/08/16 05:31:13;;;;;;;;;;;19.80;99.90;;;;;;5096652;28;19908;-69
2023/08/16 05:33:40;;;;;;;;;;;19.80;99.90;;;;;;5096092;28;19931;-69
2023/08/16 05:36:07;;;;;;;;;;;19.80;99.90;;;;;;5096177;28;19908;-68
2023/08/16 05:38:34;;;;;;;;;;;19.30;99.90;;;;;;5107267;28;19914;-68
2023/08/16 05:41:03;;;;;;;;;;;18.90;99.90;;;;;;5075960;28;20007;-68
2023/08/16 05:43:30;;;;;;;;;;;18.50;99.90;;;;;;5076513;28;19946;-72
2023/08/16 05:45:57;;;;;;;;;;;18.30;99.90;;;;;;5076271;28;19904;-70
2023/08/16 05:48:23;;;;;;;;;;;18.30;99.90;;;;;;5076208;28;20403;-72
2023/08/16 05:50:50;;;;;;;;;;;18.30;99.90;;;;;;5076212;28;20361;-72
2023/08/16 05:53:17;;;;;;;;;;;18.10;99.90;;;;;;5076160;28;19911;-72
2023/08/16 05:55:43;;;;;;;;;;;18.00;99.90;;;;;;5076196;28;19904;-70
2023/08/16 05:58:10;;;;;;;;;;;18.00;99.90;;;;;;5076334;28;20346;-72
2023/08/16 06:00:37;;;;;;;;;;;18.10;99.90;;;;;;5076195;28;19951;-72
2023/08/16 06:03:04;;;;;;;;;;;18.30;99.90;;;;;;5076158;28;19957;-73
2023/08/16 06:05:31;;;;;;;;;;;18.20;99.90;;;;;;5075888;28;19911;-72
2023/08/16 06:07:58;;;;;;;;;;;18.20;99.90;;;;;;5076319;28;19909;-73
2023/08/16 06:10:25;;;;;;;;;;;18.10;99.90;;;;;;5076021;28;20261;-72
2023/08/16 06:12:51;;;;;;;;;;;18.10;99.90;;;;;;5075690;28;20289;-72
2023/08/16 06:15:18;;;;;;;;;;;18.10;99.90;;;;;;5076029;28;20268;-72
2023/08/16 06:17:45;;;;;;;;;;;18.00;99.90;;;;;;5075759;28;19911;-73
2023/08/16 06:20:11;;;;;;;;;;;18.00;99.90;;;;;;5075470;28;19962;-72
2023/08/16 06:22:38;;;;;;;;;;;17.80;99.90;;;;;;5075866;28;19904;-72
2023/08/16 06:25:05;;;;;;;;;;;17.60;99.90;;;;;;5074926;28;20251;-72
2023/08/16 06:27:33;;;;;;;;;;;17.50;99.90;;;;;;5075722;28;19908;-72
2023/08/16 06:30:00;;;;;;;;;;;17.40;99.90;;;;;;5075526;28;19954;-72
2023/08/16 06:32:27;;;;;;;;;;;17.20;99.90;;;;;;5075329;28;19908;-69
2023/08/16 06:34:53;;;;;;;;;;;17.00;99.90;;;;;;5075411;28;20365;-70
2023/08/16 06:37:21;;;;;;;;;;;16.90;99.90;;;;;;5075228;28;19947;-70
2023/08/16 06:39:47;;;;;;;;;;;16.70;99.90;;;;;;5075501;28;19966;-73
2023/08/16 06:42:14;;;;;;;;;;;16.60;99.90;;;;;;5075311;28;19912;-73
2023/08/16 06:44:41;;;;;;;;;;;16.60;99.90;;;;;;5075279;28;19904;-73
2023/08/16 06:47:07;;;;;;;;;;;16.40;99.90;;;;;;5075387;28;20010;-69
2023/08/16 06:49:34;;;;;;;;;;;16.40;99.90;;;;;;5075147;28;20281;-72
2023/08/16 06:52:01;;;;;;;;;;;16.30;99.90;;;;;;5075004;28;19973;-73
2023/08/16 06:54:28;;;;;;;;;;;16.30;99.90;;;;;;5074891;28;19951;-70
2023/08/16 06:56:57;;;;;;;;;;;16.20;99.90;;;;;;5075087;28;19904;-72
2023/08/16 06:59:24;;;;;;;;;;;16.20;99.90;;;;;;5075126;28;19905;-72
2023/08/16 07:01:51;;;;;;;;;;;16.20;99.90;;;;;;5075350;28;19913;-73
2023/08/16 07:04:18;;;;;;;;;;;16.10;99.90;;;;;;5074951;28;19905;-73
2023/08/16 07:06:44;;;;;;;;;;;16.10;99.90;;;;;;5075094;28;19966;-72
2023/08/16 07:09:11;;;;;;;;;;;15.90;99.90;;;;;;5074916;28;19904;-72
2023/08/16 07:11:38;;;;;;;;;;;15.90;99.90;;;;;;5074937;28;19905;-73
2023/08/16 07:14:04;;;;;;;;;;;15.80;99.90;;;;;;5074565;28;20415;-73
2023/08/16 07:16:32;;;;;;;;;;;15.70;99.90;;;;;;5074484;28;19912;-71
2023/08/16 07:18:59;;;;;;;;;;;15.60;99.90;;;;;;5074567;28;19920;-71
2023/08/16 07:21:26;;;;;;;;;;;15.40;99.90;;;;;;5074665;28;19912;-71
2023/08/16 07:23:53;;;;;;;;;;;15.30;99.90;;;;;;5073252;28;19908;-70
2023/08/16 07:26:20;;;;;;;;;;;15.30;99.90;;;;;;5074780;28;19904;-71
2023/08/16 07:28:46;;;;;;;;;;;15.30;99.90;;;;;;5074651;28;19905;-70
2023/08/16 07:31:13;;;;;;;;;;;15.30;99.90;;;;;;5074470;28;19911;-72
2023/08/16 07:33:41;;;;;;;;;;;15.30;99.90;;;;;;5074244;28;19905;-71
2023/08/16 07:36:07;;;;;;;;;;;15.30;99.90;;;;;;5074371;28;19947;-72
2023/08/16 07:38:34;;;;;;;;;;;15.20;99.90;;;;;;5073955;28;19983;-70
2023/08/16 07:41:01;;;;;;;;;;;15.10;99.90;;;;;;5074248;28;20342;-70
2023/08/16 07:43:30;;;;;;;;;;;15.10;99.90;;;;;;5074073;28;19958;-70
2023/08/16 07:45:57;;;;;;;;;;;15.00;99.90;;;;;;5074420;28;19912;-71
2023/08/16 07:48:24;;;;;;;;;;;14.90;99.90;;;;;;5074091;28;20350;-70
2023/08/16 07:50:50;;;;;;;;;;;14.90;99.90;;;;;;5074358;28;19911;-70
2023/08/16 07:53:18;;;;;;;;;;;14.80;99.90;;;;;;5073989;28;19905;-69
2023/08/16 07:55:44;;;;;;;;;;;14.80;99.90;;;;;;5074348;28;19958;-70
2023/08/16 07:58:13;;;;;;;;;;;14.70;99.90;;;;;;5074225;28;20358;-69
2023/08/16 08:00:40;;;;;;;;;;;14.70;99.90;;;;;;5073840;28;20270;-70
2023/08/16 08:03:08;;;;;;;;;;;14.60;99.90;;;;;;5074054;28;19954;-70
2023/08/16 08:05:35;;;;;;;;;;;14.50;99.90;;;;;;5073854;28;19957;-70
2023/08/16 08:08:01;;;;;;;;;;;14.40;99.90;;;;;;5074110;28;19912;-70
2023/08/16 08:10:31;;;;;;;;;;;14.40;99.90;;;;;;5073722;28;19904;-70
2023/08/16 08:12:58;;;;;;;;;;;14.40;99.90;;;;;;5073882;28;19904;-70
2023/08/16 08:15:25;;;;;;;;;;;14.40;99.90;;;;;;5073932;28;19905;-69
2023/08/16 08:17:52;;;;;;;;;;;14.30;99.90;;;;;;5073872;28;19904;-72
2023/08/16 08:20:19;;;;;;;;;;;14.30;99.90;;;;;;5073747;28;19916;-70
2023/08/16 08:22:45;;;;;;;;;;;14.20;99.90;;;;;;5073691;28;20349;-69
2023/08/16 08:25:12;;;;;;;;;;;14.10;99.90;;;;;;5073700;28;20314;-70
2023/08/16 08:27:39;;;;;;;;;;;14.20;99.90;;;;;;5073556;28;19911;-70
2023/08/16 08:30:08;;;;;;;;;;;14.10;99.90;;;;;;5073733;28;19905;-72
2023/08/16 08:32:34;;;;;;;;;;;14.10;99.90;;;;;;5073451;28;19986;-71
2023/08/16 08:35:03;;;;;;;;;;;14.00;99.90;;;;;;5073748;28;19909;-69
2023/08/16 08:37:31;;;;;;;;;;;14.00;99.90;;;;;;5073494;28;19959;-69
2023/08/16 08:39:57;;;;;;;;;;;13.90;99.90;;;;;;5073757;28;19904;-69
2023/08/16 08:42:24;;;;;;;;;;;13.80;99.90;;;;;;5073385;28;20346;-69
2023/08/16 08:44:51;;;;;;;;;;;13.80;99.90;;;;;;5073565;28;19904;-71
2023/08/16 08:47:54;;;;;;;;;;;13.70;99.90;;;;;;5073183;28;19911;-69
2023/08/16 08:50:21;;;;;;;;;;;13.50;99.90;;;;;;5076189;28;19911;-69
2023/08/16 08:52:51;;;;;;;;;;;13.40;99.90;;;;;;5077607;28;19957;-69
2023/08/16 08:55:18;;;;;;;;;;;13.30;99.90;;;;;;5077392;28;19911;-70
2023/08/16 08:57:54;;;;;;;;;;;13.10;99.90;;;;;;5077328;28;20242;-69
2023/08/16 09:00:21;;;;;;;;;;;13.10;99.90;;;;;;5077681;28;20061;-70
2023/08/16 09:02:52;;;;;;;;;;;13.00;99.90;;;;;;5077272;28;19905;-70
2023/08/16 09:05:21;;;;;;;;;;;12.90;99.90;;;;;;5077504;28;19911;-70
2023/08/16 09:07:49;;;;;;;;;;;12.90;99.90;;;;;;5077242;28;19904;-70
2023/08/16 09:10:16;;;;;;;;;;;12.90;99.90;;;;;;5077060;28;19904;-71
2023/08/16 09:12:43;;;;;;;;;;;12.80;99.90;;;;;;5075899;28;19909;-69
2023/08/16 09:15:09;;;;;;;;;;;12.80;99.90;;;;;;5077433;28;19999;-69
2023/08/16 09:17:36;;;;;;;;;;;12.70;99.90;;;;;;5077176;28;19905;-69
2023/08/16 09:20:06;;;;;;;;;;;12.60;99.90;;;;;;5076892;28;20374;-69
2023/08/16 09:22:33;;;;;;;;;;;12.50;99.90;;;;;;5075656;28;19908;-70
2023/08/16 09:25:02;;;;;;;;;;;12.50;99.90;;;;;;5077369;28;19904;-69
2023/08/16 09:27:31;;;;;;;;;;;12.40;99.90;;;;;;5076815;28;19912;-70
2023/08/16 09:29:57;;;;;;;;;;;12.30;99.90;;;;;;5076538;28;19904;-70
2023/08/16 09:32:29;;;;;;;;;;;12.20;99.90;;;;;;5077020;28;19904;-69
2023/08/16 09:34:57;;;;;;;;;;;12.10;99.90;;;;;;5077365;28;19905;-68
2023/08/16 09:37:24;;;;;;;;;;;12.10;99.90;;;;;;5092134;28;19916;-73
2023/08/16 09:39:57;;;;;;;;;;;12.10;99.90;;;;;;5076766;28;19926;-70
2023/08/16 09:42:33;;;;;;;;;;;12.10;99.90;;;;;;5076411;28;19912;-69
2023/08/16 09:45:00;;;;;;;;;;;12.00;99.90;;;;;;5076351;28;19906;-70
2023/08/16 09:47:29;;;;;;;;;;;12.00;99.90;;;;;;5076482;28;19905;-69
2023/08/16 09:49:56;;;;;;;;;;;12.00;99.90;;;;;;5076366;28;19904;-70
2023/08/16 09:52:23;;;;;;;;;;;11.90;99.90;;;;;;5109005;28;19959;-71
2023/08/16 09:54:55;;;;;;;;;;;11.70;99.90;;;;;;5076429;28;20369;-70
2023/08/16 09:57:21;;;;;;;;;;;11.60;99.90;;;;;;5076239;28;19904;-70
2023/08/16 09:59:48;;;;;;;;;;;11.50;99.90;;;;;;5075017;28;20421;-69
2023/08/16 10:02:16;;;;;;;;;;;11.50;99.90;;;;;;5076387;28;20015;-70
2023/08/16 10:04:43;;;;;;;;;;;11.50;99.90;;;;;;5076308;28;19915;-71
2023/08/16 10:07:10;;;;;;;;;;;11.40;99.90;;;;;;5076310;28;19958;-72
2023/08/16 10:09:37;;;;;;;;;;;11.40;99.90;;;;;;5075979;28;19904;-71
2023/08/16 10:12:06;;;;;;;;;;;11.40;99.90;;;;;;5076019;28;19950;-70
2023/08/16 10:14:33;;;;;;;;;;;11.30;99.90;;;;;;5075996;28;19908;-69
2023/08/16 10:17:03;;;;;;;;;;;11.30;99.90;;;;;;5074640;28;19905;-72
2023/08/16 10:19:33;;;;;;;;;;;11.20;99.90;;;;;;5075840;28;20319;-72
2023/08/16 10:22:02;;;;;;;;;;;11.10;99.90;;;;;;5075801;28;19920;-71
2023/08/16 10:24:30;;;;;;;;;;;11.10;99.90;;;;;;5076085;28;19905;-70
2023/08/16 10:26:57;;;;;;;;;;;11.00;99.90;;;;;;5076176;28;19904;-71
2023/08/16 10:29:24;;;;;;;;;;;11.00;99.90;;;;;;5075999;28;19904;-70
2023/08/16 10:31:52;;;;;;;;;;;11.00;99.90;;;;;;5075616;28;19994;-71
2023/08/16 10:34:20;;;;;;;;;;;10.90;99.90;;;;;;5075515;28;19904;-70
2023/08/16 10:36:47;;;;;;;;;;;10.90;99.90;;;;;;5075495;28;19910;-69
2023/08/16 10:39:21;;;;;;;;;;;10.80;99.90;;;;;;5074257;28;19915;-70
2023/08/16 10:41:50;;;;;;;;;;;10.70;99.90;;;;;;5075286;28;19916;-72
2023/08/16 10:44:25;;;;;;;;;;;10.70;99.90;;;;;;5075550;28;20362;-72
2023/08/16 10:46:52;;;;;;;;;;;10.70;99.90;;;;;;5075815;28;19915;-72
2023/08/16 10:49:20;;;;;;;;;;;10.60;99.90;;;;;;5075237;28;19904;-69
2023/08/16 10:51:48;;;;;;;;;;;10.60;99.90;;;;;;5075272;28;19950;-72
2023/08/16 10:54:15;;;;;;;;;;;10.60;99.90;;;;;;5075091;28;19904;-70
2023/08/16 10:56:47;;;;;;;;;;;10.50;99.90;;;;;;5075267;28;19957;-71
2023/08/16 10:59:15;;;;;;;;;;;10.50;99.90;;;;;;5075033;28;19904;-72
2023/08/16 11:01:49;;;;;;;;;;;10.50;99.90;;;;;;5075022;28;20019;-72
2023/08/16 11:04:15;;;;;;;;;;;10.50;99.90;;;;;;5074987;28;19905;-71
2023/08/16 11:06:43;;;;;;;;;;;10.40;99.90;;;;;;5075188;28;20309;-70
2023/08/16 11:09:10;;;;;;;;;;;10.30;99.90;;;;;;5075205;28;19957;-72
2023/08/16 11:11:44;;;;;;;;;;;10.30;99.90;;;;;;5074614;28;19904;-69
2023/08/16 11:14:11;;;;;;;;;;;10.30;99.90;;;;;;5074629;28;19911;-70
2023/08/16 11:16:37;;;;;;;;;;;10.20;99.90;;;;;;5074807;28;20273;-69
2023/08/16 11:19:06;;;;;;;;;;;10.20;99.90;;;;;;5074470;28;19916;-70
2023/08/16 11:21:35;;;;;;;;;;;10.20;99.90;;;;;;5074557;28;19956;-71
2023/08/16 11:24:02;;;;;;;;;;;10.10;99.90;;;;;;5074326;28;19911;-69
2023/08/16 11:26:36;;;;;;;;;;;10.10;99.90;;;;;;5074628;28;19909;-70
2023/08/16 11:29:03;;;;;;;;;;;10.20;99.90;;;;;;5107146;28;19908;-71
2023/08/16 11:31:30;;;;;;;;;;;10.10;99.90;;;;;;5074520;28;20269;-72
2023/08/16 11:33:56;;;;;;;;;;;10.10;99.90;;;;;;5074243;28;19904;-72
2023/08/16 11:36:23;;;;;;;;;;;10.10;99.90;;;;;;5074546;28;19908;-69
2023/08/16 11:38:50;;;;;;;;;;;10.00;99.90;;;;;;5074465;28;19905;-69
2023/08/16 11:41:19;;;;;;;;;;;10.00;99.90;;;;;;5074427;28;19912;-72
2023/08/16 11:43:45;;;;;;;;;;;9.90;99.90;;;;;;5074053;28;19944;-71
2023/08/16 11:46:13;;;;;;;;;;;9.80;99.90;;;;;;5074182;28;19904;-72
2023/08/16 11:48:39;;;;;;;;;;;9.80;99.90;;;;;;5073961;28;19911;-69
2023/08/16 11:51:11;;;;;;;;;;;9.70;99.90;;;;;;5074100;28;19949;-72
2023/08/16 11:53:39;;;;;;;;;;;9.70;99.90;;;;;;5073961;28;19911;-70
2023/08/16 11:56:08;;;;;;;;;;;9.70;99.90;;;;;;5074347;28;19904;-69
2023/08/16 11:58:47;;;;;;;;;;;9.70;99.90;;;;;;5074179;28;19911;-68
2023/08/16 12:01:15;;;;;;;;;;;9.60;99.90;;;;;;5073833;28;19912;-69
2023/08/16 12:03:45;;;;;;;;;;;9.60;99.90;;;;;;5073740;28;19904;-69
2023/08/16 12:06:12;;;;;;;;;;;9.50;99.90;;;;;;5074086;28;20261;-69
2023/08/16 12:08:49;;;;;;;;;;;9.50;99.90;;;;;;5072415;28;19904;-69
2023/08/16 12:11:36;;;;;;;;;;;9.50;99.90;;;;;;5073684;28;19936;-68
2023/08/16 12:14:02;;;;;;;;;;;9.40;99.90;;;;;;5074334;28;19905;-69
2023/08/16 12:16:31;;;;;;;;;;;9.40;99.90;;;;;;5073615;28;20350;-68
2023/08/16 12:19:01;;;;;;;;;;;9.30;99.90;;;;;;5072321;28;19938;-69
2023/08/16 12:21:27;;;;;;;;;;;9.30;99.90;;;;;;5073429;28;20003;-69
2023/08/16 12:23:54;;;;;;;;;;;9.30;99.90;;;;;;5073050;28;19904;-70
2023/08/16 12:26:21;;;;;;;;;;;9.30;99.90;;;;;;5073772;28;19904;-69
2023/08/16 12:28:48;;;;;;;;;;;9.30;99.90;;;;;;5073697;28;19904;-68
2023/08/16 12:31:14;;;;;;;;;;;9.30;99.90;;;;;;5073647;28;20455;-71
2023/08/16 12:33:43;;;;;;;;;;;9.30;99.90;;;;;;5076151;28;20285;-69
2023/08/16 12:36:09;;;;;;;;;;;9.20;99.90;;;;;;5092500;28;19930;-68
2023/08/16 12:38:36;;;;;;;;;;;9.20;99.90;;;;;;5093129;28;19920;-68
2023/08/16 12:41:03;;;;;;;;;;;9.10;99.90;;;;;;5095297;28;20362;-68
2023/08/16 12:43:30;;;;;;;;;;;9.10;99.90;;;;;;5100909;28;20388;-69
2023/08/16 12:45:59;;;;;;;;;;;9.10;99.90;;;;;;5091930;28;19908;-70
2023/08/16 12:48:26;;;;;;;;;;;9.00;99.90;;;;;;5095084;28;19908;-70
2023/08/16 12:50:53;;;;;;;;;;;8.90;99.90;;;;;;5101653;28;19908;-69
2023/08/16 12:53:19;;;;;;;;;;;8.90;99.90;;;;;;5102689;28;19916;-69
2023/08/16 12:55:46;;;;;;;;;;;8.90;99.90;;;;;;5102957;28;19904;-69
2023/08/16 12:58:12;;;;;;;;;;;8.90;99.90;;;;;;5103712;28;19908;-69
2023/08/16 13:00:39;;;;;;;;;;;8.90;99.90;;;;;;5097854;28;19912;-69
2023/08/16 13:03:06;;;;;;;;;;;8.90;99.90;;;;;;5102636;28;19908;-69
2023/08/16 13:05:33;;;;;;;;;;;8.70;99.90;;;;;;5101575;28;19908;-69
2023/08/16 13:07:59;;;;;;;;;;;8.70;99.90;;;;;;5104105;28;19907;-69
2023/08/16 13:10:26;;;;;;;;;;;8.60;99.90;;;;;;5096462;28;20425;-69
2023/08/16 13:12:53;;;;;;;;;;;8.60;99.90;;;;;;5099908;28;19982;-70
2023/08/16 13:15:20;;;;;;;;;;;8.60;99.90;;;;;;5101937;28;19915;-70
2023/08/16 13:17:46;;;;;;;;;;;8.60;99.90;;;;;;5092312;28;19961;-69
2023/08/16 13:20:14;;;;;;;;;;;8.60;99.90;;;;;;5092674;28;19927;-70
2023/08/16 13:22:40;;;;;;;;;;;8.60;99.90;;;;;;5092545;28;19908;-69
2023/08/16 13:25:07;;;;;;;;;;;8.60;99.90;;;;;;5092652;28;19908;-69
2023/08/16 13:27:34;;;;;;;;;;;8.50;99.90;;;;;;5092577;28;19908;-69
2023/08/16 13:30:01;;;;;;;;;;;8.50;99.90;;;;;;5092438;28;19907;-69
2023/08/16 13:32:28;;;;;;;;;;;8.40;99.90;;;;;;5092528;28;19995;-70
2023/08/16 13:34:54;;;;;;;;;;;8.40;99.90;;;;;;5092953;28;19934;-69
2023/08/16 13:37:21;;;;;;;;;;;8.40;99.90;;;;;;5095604;28;19908;-70
2023/08/16 13:39:48;;;;;;;;;;;8.40;99.90;;;;;;5096062;28;19994;-69
2023/08/16 13:42:14;;;;;;;;;;;8.30;99.90;;;;;;5096379;28;19912;-71
2023/08/16 13:44:41;;;;;;;;;;;8.30;99.90;;;;;;5095795;28;20365;-71
2023/08/16 13:47:08;;;;;;;;;;;8.40;99.90;;;;;;5096130;28;19908;-70
2023/08/16 13:49:34;;;;;;;;;;;8.40;99.90;;;;;;5095616;28;19914;-70
2023/08/16 13:52:01;;;;;;;;;;;8.30;99.90;;;;;;5096077;28;19908;-69
2023/08/16 13:54:28;;;;;;;;;;;8.20;99.90;;;;;;5095952;28;19961;-69
2023/08/16 13:56:55;;;;;;;;;;;8.10;99.90;;;;;;5094802;28;19954;-69
2023/08/16 13:59:21;;;;;;;;;;;8.10;99.90;;;;;;5094942;28;19904;-69
2023/08/16 14:01:48;;;;;;;;;;;8.10;99.90;;;;;;5096573;28;20354;-69
2023/08/16 14:04:15;;;;;;;;;;;8.10;99.90;;;;;;5094968;28;19915;-70
2023/08/16 14:06:42;;;;;;;;;;;8.00;99.90;;;;;;5096510;28;19911;-70
2023/08/16 14:09:08;;;;;;;;;;;8.00;99.90;;;;;;5096248;28;19904;-69
2023/08/16 14:11:35;;;;;;;;;;;8.00;99.90;;;;;;5096237;28;20377;-69
2023/08/16 14:14:02;;;;;;;;;;;7.90;99.90;;;;;;5096308;28;20269;-69
2023/08/16 14:16:29;;;;;;;;;;;7.90;99.90;;;;;;5096123;28;19915;-69
2023/08/16 14:18:57;;;;;;;;;;;8.10;99.90;;;;;;5095983;28;19916;-70
2023/08/16 14:21:23;;;;;;;;;;;8.20;99.90;;;;;;5095945;28;19920;-70